Terminal Aerodrome Forecast
Issued by NWS Wilmington, NC

Home | Current Version | Previous Version | Text Only | Print | Product List | Glossary On
Versions: 1 2 3 4 5 6 7 8 9 10 11 12 13 14 15 16 17
205
FTUS42 KILM 280547
TAFILM
TAF
KILM 280547Z 2806/2906 20005KT P6SM BKN080
     FM281500 22011G18KT P6SM VCSH SCT035 BKN080 PROB30 2815/2821
      4SM -TSRA OVC015CB
     FM282100 22010KT P6SM VCSH SCT050 BKN100
     FM290000 22006KT P6SM SCT050
     FM290500 26006KT P6SM FEW050=

USA.gov is the U.S. government's official web portal to all federal, state and local government web resources and services.